Time;durP1;ratioP1;P1;durP2;ratioP2;P2;SDS_P1;SDS_P2;PMS_P1;PMS_P2;Temp;Humidity;BMP_temperature;BMP_pressure;BME280_temperature;BME280_humidity;BME280_pressure;Samples;Min_cycle;Max_cycle;Signal;HPM_P1;HPM_P2
2023/10/07 00:01:45;;;;;;;4.90;1.40;;;15.60;99.90;;;;;;2604475;46;20026;31
2023/10/07 00:13:08;;;;;;;6.32;1.77;;;15.50;99.90;;;;;;2585433;54;20254;31
2023/10/07 00:15:48;;;;;;;5.50;1.93;;;15.50;99.90;;;;;;2585981;54;20048;31
2023/10/07 00:18:26;;;;;;;6.03;1.43;;;15.60;99.90;;;;;;2585134;54;20887;31
2023/10/07 00:24:16;;;;;;;4.70;1.70;;;15.60;99.90;;;;;;2584964;54;20100;31
2023/10/07 00:26:52;;;;;;;4.95;1.50;;;15.60;99.90;;;;;;2586096;54;20243;31
2023/10/07 00:32:32;;;;;;;2.70;1.45;;;15.60;99.90;;;;;;2591230;46;20089;31
2023/10/07 00:58:27;;;;;;;4.75;1.50;;;15.60;99.90;;;;;;2584883;54;19942;31
2023/10/07 01:01:08;;;;;;;4.18;1.77;;;15.60;99.90;;;;;;2603730;46;20796;31
2023/10/07 01:03:55;;;;;;;4.57;1.48;;;15.60;99.90;;;;;;2584870;54;20034;31
2023/10/07 01:06:38;;;;;;;2.60;1.40;;;15.60;99.90;;;;;;2584965;54;20045;31
2023/10/07 01:18:13;;;;;;;3.67;1.17;;;15.50;99.90;;;;;;2585813;54;20096;31
2023/10/07 01:21:11;;;;;;;5.15;1.50;;;15.50;99.90;;;;;;2590897;47;20095;31
2023/10/07 01:23:53;;;;;;;4.90;1.70;;;15.50;99.90;;;;;;2604046;47;20017;31
2023/10/07 01:29:42;;;;;;;5.35;1.30;;;15.50;99.90;;;;;;2585499;54;20026;31
2023/10/07 01:32:20;;;;;;;3.30;1.38;;;15.50;99.90;;;;;;2584783;54;21229;31
2023/10/07 01:34:55;;;;;;;4.13;1.35;;;15.40;99.90;;;;;;2584838;54;20042;31
2023/10/07 01:37:41;;;;;;;7.20;1.30;;;15.40;99.90;;;;;;2603737;47;20023;31
2023/10/07 01:40:27;;;;;;;3.67;1.60;;;15.40;99.90;;;;;;2585847;54;20026;31
2023/10/07 01:43:02;;;;;;;5.20;1.63;;;15.40;99.90;;;;;;2586684;47;20132;31
2023/10/07 01:45:47;;;;;;;3.90;1.40;;;15.40;99.90;;;;;;2683325;39;21504;31
2023/10/07 01:48:27;;;;;;;2.83;1.53;;;15.40;99.90;;;;;;2585766;54;20027;31
2023/10/07 01:51:07;;;;;;;4.07;1.48;;;15.40;99.90;;;;;;2585302;54;20851;31
2023/10/07 01:53:46;;;;;;;4.00;1.60;;;15.40;99.90;;;;;;2585590;54;20843;31
2023/10/07 01:56:22;;;;;;;3.90;1.25;;;15.40;99.90;;;;;;2585565;54;21206;31
2023/10/07 01:59:04;;;;;;;3.60;1.50;;;15.40;99.90;;;;;;2585864;54;21649;31
2023/10/07 02:01:50;;;;;;;3.33;1.33;;;15.40;99.90;;;;;;2584977;54;20256;31
2023/10/07 02:04:32;;;;;;;5.13;1.60;;;15.40;99.90;;;;;;2584706;54;19965;31
2023/10/07 02:07:09;;;;;;;7.03;1.43;;;15.40;99.90;;;;;;2585798;54;20033;31
2023/10/07 02:09:54;;;;;;;3.13;1.35;;;15.30;99.90;;;;;;2585536;54;20276;31
2023/10/07 02:12:39;;;;;;;3.15;1.40;;;15.40;99.90;;;;;;2585346;54;20817;31
2023/10/07 02:15:19;;;;;;;4.32;1.58;;;15.40;99.90;;;;;;2585737;54;20033;31
2023/10/07 02:17:56;;;;;;;4.50;1.35;;;15.40;99.90;;;;;;2586390;54;20894;31
2023/10/07 02:20:43;;;;;;;4.97;1.70;;;15.40;99.90;;;;;;2586405;54;20484;31
2023/10/07 02:29:34;;;;;;;2.78;1.08;;;15.30;99.90;;;;;;2586562;54;20034;31
2023/10/07 02:32:17;;;;;;;4.90;1.40;;;15.40;99.90;;;;;;2683958;39;21289;31
2023/10/07 02:41:06;;;;;;;2.90;1.20;;;15.30;99.90;;;;;;2585367;54;20023;31
2023/10/07 02:46:43;;;;;;;4.47;1.17;;;15.30;99.90;;;;;;2585430;54;21079;31
2023/10/07 02:49:27;;;;;;;3.50;1.40;;;15.30;99.90;;;;;;2585332;54;21172;31
2023/10/07 02:52:16;;;;;;;4.50;1.37;;;15.30;99.90;;;;;;2585445;54;20951;31
2023/10/07 02:55:14;;;;;;;3.95;1.13;;;15.40;99.90;;;;;;2586052;54;20955;31
2023/10/07 02:57:55;;;;;;;5.10;1.60;;;15.40;99.90;;;;;;2586418;54;20038;31
2023/10/07 03:06:46;;;;;;;2.22;1.15;;;15.40;99.90;;;;;;2586134;54;20085;31
2023/10/07 03:18:32;;;;;;;4.03;1.60;;;15.40;99.90;;;;;;2584980;54;20798;31
2023/10/07 03:21:11;;;;;;;7.00;1.73;;;15.40;99.90;;;;;;2586402;54;20026;31
2023/10/07 03:23:48;;;;;;;5.10;1.50;;;15.40;99.90;;;;;;2585878;54;20026;31
2023/10/07 03:29:30;;;;;;;4.30;1.02;;;15.40;99.90;;;;;;2585353;54;22315;31
2023/10/07 03:32:08;;;;;;;4.50;1.20;;;15.40;99.90;;;;;;2586156;54;20873;31
2023/10/07 03:34:45;;;;;;;4.00;1.50;;;15.40;99.90;;;;;;2586225;54;20108;31
2023/10/07 03:40:25;;;;;;;2.88;1.30;;;15.40;99.90;;;;;;2586228;54;20869;31
2023/10/07 03:45:58;;;;;;;5.15;1.20;;;15.40;99.90;;;;;;2585888;54;20934;31
2023/10/07 03:51:35;;;;;;;3.20;1.23;;;15.40;99.90;;;;;;2585240;54;20781;31
2023/10/07 03:54:24;;;;;;;3.40;0.93;;;15.40;99.90;;;;;;2585644;54;20125;31
2023/10/07 03:57:07;;;;;;;3.97;1.03;;;15.40;99.90;;;;;;2585652;54;20033;31
2023/10/07 03:59:41;;;;;;;3.77;1.13;;;15.40;99.90;;;;;;2586085;54;20764;31
2023/10/07 04:10:45;;;;;;;4.97;1.50;;;15.60;99.90;;;;;;2585236;54;20030;31
2023/10/07 04:13:24;;;;;;;4.00;1.57;;;15.80;99.90;;;;;;2585840;54;20037;31
2023/10/07 04:16:14;;;;;;;3.50;1.10;;;15.80;99.90;;;;;;2604307;46;20020;31
2023/10/07 04:18:49;;;;;;;2.53;0.75;;;16.00;99.90;;;;;;2586028;54;21087;31
2023/10/07 04:21:30;;;;;;;2.90;1.00;;;16.00;99.90;;;;;;2585794;54;20849;31
2023/10/07 04:24:09;;;;;;;5.47;1.20;;;16.10;99.90;;;;;;2585968;54;20026;31
2023/10/07 04:26:51;;;;;;;3.22;0.90;;;16.10;99.90;;;;;;2586062;54;20349;31
2023/10/07 04:29:30;;;;;;;2.90;0.90;;;16.20;99.90;;;;;;2585674;54;20881;31
2023/10/07 04:32:12;;;;;;;2.70;1.00;;;16.20;99.90;;;;;;2604294;46;20870;31
2023/10/07 04:35:05;;;;;;;3.05;1.20;;;16.30;99.90;;;;;;2585706;54;20045;31
2023/10/07 04:37:54;;;;;;;4.50;1.20;;;16.30;99.90;;;;;;2585641;54;20022;31
2023/10/07 04:40:53;;;;;;;2.72;1.00;;;16.40;99.90;;;;;;2585903;54;21105;31
2023/10/07 04:43:25;;;;;;;3.00;1.20;;;16.40;99.90;;;;;;2585857;54;20102;31
2023/10/07 04:46:22;;;;;;;3.97;1.25;;;16.40;99.90;;;;;;2585439;54;20925;31
2023/10/07 04:48:54;;;;;;;2.80;1.10;;;16.50;99.90;;;;;;2585661;54;20022;31
2023/10/07 04:54:35;;;;;;;2.95;1.40;;;16.50;99.90;;;;;;2585951;54;20758;31
2023/10/07 04:57:29;;;;;;;4.20;0.90;;;16.50;99.90;;;;;;2604192;46;20030;31
2023/10/07 05:00:17;;;;;;;2.67;1.00;;;16.60;99.90;;;;;;2585714;54;20038;31
2023/10/07 05:02:57;;;;;;;3.30;1.05;;;16.60;99.90;;;;;;2585014;54;20213;31
2023/10/07 05:11:42;;;;;;;2.83;1.10;;;16.60;99.90;;;;;;2585000;54;20026;31
2023/10/07 05:14:22;;;;;;;1.75;0.80;;;16.60;99.90;;;;;;2585761;54;21531;31
2023/10/07 05:20:05;;;;;;;4.65;0.70;;;16.70;99.90;;;;;;2682491;39;21580;31
2023/10/07 05:25:48;;;;;;;3.22;1.33;;;16.70;99.90;;;;;;2682824;39;20462;31
2023/10/07 05:28:27;;;;;;;4.95;1.20;;;16.70;99.90;;;;;;2585823;54;20781;31
2023/10/07 05:31:03;;;;;;;2.83;1.10;;;16.70;99.90;;;;;;2683596;39;20373;31
2023/10/07 05:33:43;;;;;;;2.25;1.00;;;16.80;99.90;;;;;;2585883;54;20033;31
2023/10/07 05:36:24;;;;;;;3.35;1.15;;;16.80;99.90;;;;;;2585579;54;21037;31
2023/10/07 05:41:56;;;;;;;2.70;1.05;;;16.80;99.90;;;;;;2584709;54;20594;31
2023/10/07 05:44:32;;;;;;;3.03;1.05;;;16.90;99.90;;;;;;2585750;54;20026;31
2023/10/07 05:47:12;;;;;;;4.53;1.20;;;16.90;99.90;;;;;;2585853;54;20097;31
2023/10/07 05:49:56;;;;;;;3.65;1.20;;;16.90;99.90;;;;;;2586561;54;21627;31
2023/10/07 05:52:35;;;;;;;3.10;0.73;;;16.90;99.90;;;;;;2586345;54;20130;31
2023/10/07 05:55:13;;;;;;;3.65;0.90;;;17.00;99.90;;;;;;2684204;39;21577;31
2023/10/07 05:57:51;;;;;;;6.33;1.40;;;17.00;99.90;;;;;;2585675;54;20043;31
2023/10/07 06:00:36;;;;;;;2.55;1.20;;;16.90;99.90;;;;;;2604931;46;21022;31
2023/10/07 06:03:14;;;;;;;4.10;1.13;;;17.00;99.90;;;;;;2586757;54;20848;31
2023/10/07 06:05:57;;;;;;;2.67;0.93;;;17.00;99.90;;;;;;2604762;46;20077;31
2023/10/07 06:08:38;;;;;;;5.25;0.90;;;17.10;99.90;;;;;;2604724;46;20330;31
2023/10/07 06:11:11;;;;;;;6.65;0.93;;;17.10;99.90;;;;;;2586427;54;20026;31
2023/10/07 06:13:47;;;;;;;3.20;1.10;;;17.10;99.90;;;;;;2586103;54;20860;31
2023/10/07 06:16:22;;;;;;;4.95;1.20;;;17.00;99.90;;;;;;2586267;54;20863;31
2023/10/07 06:18:59;;;;;;;2.30;1.00;;;17.00;99.90;;;;;;2586022;54;20081;31
2023/10/07 06:21:44;;;;;;;5.87;1.30;;;17.00;99.90;;;;;;2586359;54;20974;31
2023/10/07 06:27:32;;;;;;;2.50;0.87;;;17.10;99.90;;;;;;2586528;54;20797;31
2023/10/07 06:36:02;;;;;;;3.03;1.10;;;18.10;99.90;;;;;;2603824;54;21080;31
2023/10/07 06:38:45;;;;;;;2.80;1.20;;;18.10;99.90;;;;;;2586292;54;20860;31
2023/10/07 06:41:24;;;;;;;3.75;1.50;;;18.10;99.90;;;;;;2586219;54;20113;31
2023/10/07 06:44:02;;;;;;;2.10;0.90;;;18.10;99.90;;;;;;2586256;54;20163;31
2023/10/07 06:55:44;;;;;;;4.30;1.07;;;18.20;99.90;;;;;;2585116;54;20035;31
2023/10/07 06:58:23;;;;;;;2.97;1.27;;;18.80;99.90;;;;;;2585600;54;20982;31
2023/10/07 07:04:04;;;;;;;3.10;0.83;;;19.90;99.90;;;;;;2585435;54;22397;31
2023/10/07 07:06:43;;;;;;;2.05;1.10;;;20.00;99.90;;;;;;2585387;54;21068;31
2023/10/07 07:18:46;;;;;;;4.80;1.10;;;20.80;99.90;;;;;;2585251;54;20035;31
2023/10/07 07:24:36;;;;;;;3.95;1.15;;;20.60;99.90;;;;;;2585626;54;20055;31
2023/10/07 07:27:12;;;;;;;3.45;1.10;;;20.40;99.90;;;;;;2585165;54;21461;31
2023/10/07 07:29:45;;;;;;;2.45;0.77;;;20.20;99.90;;;;;;2585922;54;20207;31
2023/10/07 07:38:48;;;;;;;3.35;1.10;;;20.00;99.90;;;;;;2585201;54;20042;31
2023/10/07 07:41:34;;;;;;;4.25;1.15;;;20.00;99.90;;;;;;2603807;46;20936;31
2023/10/07 07:44:15;;;;;;;5.57;1.40;;;19.90;99.90;;;;;;2586148;54;20055;31
2023/10/07 07:46:57;;;;;;;2.63;1.20;;;19.90;99.90;;;;;;2586155;54;20953;31
2023/10/07 07:49:32;;;;;;;3.07;1.07;;;19.90;99.90;;;;;;2585912;54;20042;31
2023/10/07 07:52:08;;;;;;;4.40;0.80;;;19.90;99.90;;;;;;2586267;54;20783;31
2023/10/07 07:54:44;;;;;;;5.05;1.15;;;19.90;99.90;;;;;;2603947;46;20891;31
2023/10/07 07:57:27;;;;;;;3.13;1.15;;;19.90;99.90;;;;;;2586187;54;20744;31
2023/10/07 08:00:05;;;;;;;3.22;0.98;;;19.90;99.90;;;;;;2586290;54;20034;31
2023/10/07 08:02:48;;;;;;;2.00;0.60;;;19.90;99.90;;;;;;2586300;54;20868;31
2023/10/07 08:05:26;;;;;;;6.57;1.02;;;19.90;99.90;;;;;;2604725;46;20912;31
2023/10/07 08:08:09;;;;;;;3.55;1.10;;;19.90;99.90;;;;;;2604373;46;20156;31
2023/10/07 08:10:48;;;;;;;2.72;0.85;;;19.90;99.90;;;;;;2586362;54;20923;31
2023/10/07 08:13:28;;;;;;;2.27;0.83;;;19.90;99.90;;;;;;2586134;54;20045;31
2023/10/07 08:16:05;;;;;;;1.55;0.60;;;20.00;99.90;;;;;;2585959;54;20026;31
2023/10/07 08:18:40;;;;;;;2.90;1.00;;;20.10;99.90;;;;;;2586327;54;20936;31
2023/10/07 08:21:17;;;;;;;1.83;0.90;;;20.20;99.90;;;;;;2586114;54;20037;31
2023/10/07 08:24:01;;;;;;;2.00;0.88;;;20.30;99.90;;;;;;2597881;46;20053;31
2023/10/07 08:29:44;;;;;;;2.43;1.00;;;20.40;99.90;;;;;;2584796;54;21617;31
2023/10/07 08:32:35;;;;;;;3.13;0.90;;;20.30;99.90;;;;;;2586190;54;20780;31
2023/10/07 08:35:14;;;;;;;4.05;1.20;;;20.30;99.90;;;;;;2585872;54;20048;31
2023/10/07 08:44:12;;;;;;;3.30;0.80;;;20.20;99.90;;;;;;2603549;46;21156;31
2023/10/07 08:56:30;;;;;;;2.40;0.97;;;20.00;99.90;;;;;;2585847;54;20980;31
2023/10/07 08:59:16;;;;;;;2.40;0.90;;;19.90;99.90;;;;;;2701401;39;21124;31
2023/10/07 09:01:57;;;;;;;3.00;1.20;;;19.90;99.90;;;;;;2585593;54;20880;31
2023/10/07 09:04:33;;;;;;;3.08;0.90;;;19.80;99.90;;;;;;2585878;54;21425;31
2023/10/07 09:07:12;;;;;;;2.88;0.93;;;19.80;99.90;;;;;;2595764;46;20889;31
2023/10/07 09:09:52;;;;;;;3.17;1.08;;;19.70;99.90;;;;;;2584898;54;19969;31
2023/10/07 09:12:38;;;;;;;4.25;0.80;;;19.70;99.90;;;;;;2594639;47;20826;31
2023/10/07 09:15:25;;;;;;;2.35;0.70;;;19.70;99.90;;;;;;2604212;47;20050;31
2023/10/07 09:18:10;;;;;;;1.60;1.00;;;19.70;99.90;;;;;;2589708;47;20023;31
2023/10/07 09:20:50;;;;;;;2.67;1.13;;;19.60;99.90;;;;;;2602936;47;20392;31
2023/10/07 09:23:35;;;;;;;4.45;1.08;;;19.60;99.90;;;;;;2604407;47;20886;31
2023/10/07 09:29:21;;;;;;;2.40;0.93;;;19.60;99.90;;;;;;2585595;54;20866;31
2023/10/07 09:32:04;;;;;;;4.53;1.00;;;19.50;99.90;;;;;;2585823;46;21634;31
2023/10/07 09:34:45;;;;;;;3.25;1.05;;;19.50;99.90;;;;;;2585481;54;20088;31
2023/10/07 09:37:32;;;;;;;4.50;1.20;;;19.50;99.90;;;;;;2591117;46;20057;31
2023/10/07 09:41:06;;;;;;;4.72;0.98;;;19.50;99.90;;;;;;2586683;54;20026;31
2023/10/07 09:43:19;;;;;;;5.32;0.90;;;19.50;99.90;;;;;;2605014;46;20049;31
2023/10/07 09:46:08;;;;;;;2.40;1.08;;;19.50;99.90;;;;;;2585642;54;19986;31
2023/10/07 09:48:57;;;;;;;2.72;0.98;;;19.40;99.90;;;;;;2604964;46;20863;31
2023/10/07 10:03:20;;;;;;;3.10;1.00;;;19.30;99.90;;;;;;2586464;54;20901;31
2023/10/07 10:06:08;;;;;;;3.50;1.02;;;19.30;99.90;;;;;;2702895;39;21460;31
2023/10/07 10:08:59;;;;;;;3.20;1.00;;;19.30;99.90;;;;;;2586094;54;20880;31
2023/10/07 10:20:47;;;;;;;2.53;1.10;;;19.30;99.90;;;;;;2586660;54;20027;31
2023/10/07 10:26:26;;;;;;;4.80;1.05;;;19.30;99.90;;;;;;2586550;54;20031;31
2023/10/07 10:29:15;;;;;;;;;;;19.30;99.90;;;;;;2755704;31;21556;31
2023/10/07 10:31:58;;;;;;;7.65;1.10;;;19.20;99.90;;;;;;2585934;54;20748;31
2023/10/07 10:40:48;;;;;;;2.78;0.98;;;19.10;99.90;;;;;;2585404;54;20108;31
2023/10/07 10:43:48;;;;;;;2.85;1.35;;;19.00;99.90;;;;;;2586690;54;20473;31
2023/10/07 10:46:30;;;;;;;2.92;0.93;;;19.00;99.90;;;;;;2586479;54;20871;31
2023/10/07 10:49:11;;;;;;;3.30;1.00;;;19.00;99.90;;;;;;2586410;54;20022;31
2023/10/07 10:51:46;;;;;;;3.90;0.90;;;18.90;99.90;;;;;;2604158;46;20238;31
2023/10/07 10:54:22;;;;;;;4.97;1.35;;;18.90;99.90;;;;;;2586219;54;20251;31
2023/10/07 10:57:05;;;;;;;2.05;1.02;;;18.90;99.90;;;;;;2586058;54;20022;31
2023/10/07 10:59:47;;;;;;;3.63;1.08;;;19.00;99.90;;;;;;2586241;54;20045;31
2023/10/07 11:02:27;;;;;;;3.28;0.95;;;19.10;99.90;;;;;;2684333;39;20450;31
2023/10/07 11:05:03;;;;;;;2.80;1.20;;;19.20;99.90;;;;;;2586262;54;20868;31
2023/10/07 11:10:22;;;;;;;3.20;1.15;;;19.30;99.90;;;;;;2604510;46;19935;31
2023/10/07 11:16:09;;;;;;;6.97;1.25;;;19.50;99.90;;;;;;2586171;54;20022;31
2023/10/07 11:24:34;;;;;;;3.35;1.30;;;19.70;99.90;;;;;;2585435;54;20034;31
2023/10/07 11:27:08;;;;;;;4.45;1.20;;;19.70;99.90;;;;;;2586271;54;20034;31
2023/10/07 11:29:44;;;;;;;4.25;0.80;;;19.70;99.90;;;;;;2585368;54;20894;31
2023/10/07 11:32:33;;;;;;;4.95;1.30;;;19.70;99.90;;;;;;2586158;54;20139;31
2023/10/07 11:37:57;;;;;;;4.20;0.85;;;19.50;99.90;;;;;;2586109;54;20148;31
2023/10/07 11:40:40;;;;;;;3.25;1.00;;;19.50;99.90;;;;;;2586217;54;20030;31
2023/10/07 11:43:17;;;;;;;3.63;1.10;;;19.40;99.90;;;;;;2586248;54;20030;31
2023/10/07 11:46:03;;;;;;;2.60;1.17;;;19.40;99.90;;;;;;2586195;54;20238;31
2023/10/07 11:51:40;;;;;;;2.88;1.20;;;19.30;99.90;;;;;;2586160;54;20072;31
2023/10/07 11:54:24;;;;;;;2.63;1.08;;;19.20;99.90;;;;;;2586201;54;20022;31
2023/10/07 12:06:12;;;;;;;5.43;1.17;;;19.00;99.90;;;;;;2918093;46;20026;31
2023/10/07 12:15:15;;;;;;;2.75;1.10;;;19.00;99.90;;;;;;2585976;54;20035;31
2023/10/07 12:17:52;;;;;;;3.40;1.10;;;18.90;99.90;;;;;;2585980;54;20116;31
2023/10/07 12:20:30;;;;;;;2.70;1.15;;;18.90;99.90;;;;;;2586143;54;20076;31
2023/10/07 12:25:42;;;;;;;3.70;1.10;;;19.00;99.90;;;;;;2586138;54;20022;31
2023/10/07 12:28:22;;;;;;;3.33;1.63;;;19.00;99.90;;;;;;2594705;46;20130;31
2023/10/07 12:31:02;;;;;;;2.60;1.10;;;19.00;99.90;;;;;;2682928;39;22558;31
2023/10/07 12:33:45;;;;;;;3.95;0.95;;;19.00;99.90;;;;;;2584749;54;20779;31
2023/10/07 12:36:24;;;;;;;3.10;1.13;;;18.90;99.90;;;;;;2584807;54;20034;31
2023/10/07 12:39:01;;;;;;;3.95;0.85;;;18.90;99.90;;;;;;2586080;54;20037;31
2023/10/07 12:41:44;;;;;;;2.78;0.90;;;18.90;99.90;;;;;;2604155;46;20086;31
2023/10/07 12:44:24;;;;;;;4.63;1.45;;;18.80;99.90;;;;;;2586321;54;20881;31
2023/10/07 12:47:11;;;;;;;2.65;0.90;;;18.80;99.90;;;;;;2683485;39;21587;31
2023/10/07 12:49:53;;;;;;;6.85;1.35;;;18.80;99.90;;;;;;2585992;54;20120;31
2023/10/07 12:52:29;;;;;;;3.13;0.93;;;18.80;99.90;;;;;;2586069;54;20896;31
2023/10/07 12:58:05;;;;;;;1.97;0.80;;;18.80;99.90;;;;;;2689503;39;21551;31
2023/10/07 13:00:51;;;;;;;2.70;1.20;;;18.80;99.90;;;;;;2586057;54;20814;31
2023/10/07 13:03:31;;;;;;;2.83;1.00;;;18.80;99.90;;;;;;2604518;46;20027;31
2023/10/07 13:06:08;;;;;;;3.13;1.63;;;18.80;99.90;;;;;;2585857;54;21176;31
2023/10/07 13:08:42;;;;;;;4.50;1.20;;;18.70;99.90;;;;;;2585886;54;20683;31
2023/10/07 13:11:22;;;;;;;3.35;1.00;;;18.80;99.90;;;;;;2585767;54;20322;31
2023/10/07 13:14:00;;;;;;;3.33;1.55;;;18.80;99.90;;;;;;2585955;54;20485;31
2023/10/07 13:16:39;;;;;;;3.85;1.20;;;18.80;99.90;;;;;;2585821;54;20976;31
2023/10/07 13:19:27;;;;;;;2.65;0.90;;;18.80;99.90;;;;;;2584942;54;20879;31
2023/10/07 13:22:13;;;;;;;2.95;0.95;;;18.80;99.90;;;;;;2682681;39;22277;31
2023/10/07 13:24:52;;;;;;;2.30;1.25;;;18.80;99.90;;;;;;2603817;46;20775;31
2023/10/07 13:27:31;;;;;;;4.45;1.38;;;18.80;99.90;;;;;;2601070;47;20898;31
2023/10/07 13:30:16;;;;;;;3.72;1.25;;;18.80;99.90;;;;;;2594361;47;20026;31
2023/10/07 13:32:57;;;;;;;2.10;1.00;;;18.80;99.90;;;;;;2603392;47;20025;31
2023/10/07 13:35:37;;;;;;;4.40;1.10;;;18.80;99.90;;;;;;2603301;47;20560;31
2023/10/07 13:38:20;;;;;;;2.23;1.00;;;18.80;99.90;;;;;;2585739;54;20757;31
2023/10/07 13:40:59;;;;;;;3.53;1.10;;;;;;;;;;2594547;47;20030;31
2023/10/07 13:43:36;;;;;;;3.15;1.00;;;;;;;;;;2601541;47;21372;31
2023/10/07 13:46:16;;;;;;;4.15;1.40;;;19.00;99.90;;;;;;2585147;54;20043;31
2023/10/07 13:48:54;;;;;;;2.20;1.00;;;19.00;99.90;;;;;;2584895;54;20952;31
2023/10/07 13:51:31;;;;;;;2.30;0.90;;;18.90;99.90;;;;;;2603651;47;20056;31
2023/10/07 13:54:38;;;;;;;2.72;1.05;;;19.00;99.90;;;;;;2585571;54;20750;31
2023/10/07 13:57:18;;;;;;;2.13;0.80;;;19.00;99.90;;;;;;2586071;54;20766;31
2023/10/07 14:00:01;;;;;;;3.92;1.10;;;19.00;99.90;;;;;;2585716;54;20089;31
2023/10/07 14:02:46;;;;;;;2.78;0.90;;;19.00;99.90;;;;;;2585773;54;19941;31
2023/10/07 14:05:29;;;;;;;1.98;0.90;;;19.00;99.90;;;;;;2584759;54;20642;31
2023/10/07 14:08:16;;;;;;;2.53;0.98;;;18.90;99.90;;;;;;2603933;47;20851;31
2023/10/07 14:11:09;;;;;;;2.70;1.00;;;18.90;99.90;;;;;;2605061;47;21532;31
2023/10/07 14:13:47;;;;;;;2.57;0.93;;;18.90;99.90;;;;;;2605015;46;20029;31
2023/10/07 14:16:21;;;;;;;3.05;1.10;;;18.90;99.90;;;;;;2586662;54;20965;31
2023/10/07 14:18:58;;;;;;;4.25;0.90;;;18.90;99.90;;;;;;2684493;39;22300;31
2023/10/07 14:21:38;;;;;;;3.40;1.30;;;18.80;99.90;;;;;;2586107;54;20026;31
2023/10/07 14:24:15;;;;;;;1.70;0.83;;;18.90;99.90;;;;;;2605004;46;20880;31
2023/10/07 14:26:57;;;;;;;4.00;1.15;;;18.90;99.90;;;;;;2684254;39;21530;31
2023/10/07 14:29:34;;;;;;;2.50;1.00;;;18.80;99.90;;;;;;2605001;46;20031;31
2023/10/07 14:32:11;;;;;;;2.50;1.00;;;18.90;99.90;;;;;;2586419;54;20046;31
2023/10/07 14:34:47;;;;;;;3.70;0.88;;;18.80;99.90;;;;;;2586533;54;20870;31
2023/10/07 14:37:24;;;;;;;;;;;18.80;99.90;;;;;;2586745;54;20027;31
2023/10/07 14:39:58;;;;;;;2.10;1.20;;;18.80;99.90;;;;;;2586458;54;20753;31
2023/10/07 14:42:40;;;;;;;2.95;1.10;;;18.80;99.90;;;;;;2684101;39;21522;31
2023/10/07 14:45:21;;;;;;;2.60;0.80;;;18.80;99.90;;;;;;2586330;54;20763;31
2023/10/07 14:47:59;;;;;;;2.47;1.05;;;18.80;99.90;;;;;;2586011;54;20019;31
2023/10/07 14:50:40;;;;;;;2.38;1.17;;;18.80;99.90;;;;;;2592034;46;21317;31
2023/10/07 14:53:18;;;;;;;3.87;1.50;;;18.80;99.90;;;;;;2586497;54;20031;31
2023/10/07 14:55:53;;;;;;;2.70;1.20;;;18.80;99.90;;;;;;2684104;39;20620;31
2023/10/07 14:58:36;;;;;;;2.10;0.90;;;18.80;99.90;;;;;;2586320;54;20520;31
2023/10/07 15:01:12;;;;;;;3.35;1.40;;;18.70;99.90;;;;;;2684423;39;21435;31
2023/10/07 15:03:47;;;;;;;4.05;0.88;;;18.70;99.90;;;;;;2586250;54;20187;31
2023/10/07 15:06:24;;;;;;;2.13;1.00;;;18.70;99.90;;;;;;2605149;46;20555;31
2023/10/07 15:09:07;;;;;;;3.25;1.20;;;18.50;99.90;;;;;;2586272;54;20034;31
2023/10/07 15:14:15;;;;;;;3.67;1.17;;;18.30;99.90;;;;;;2586129;54;21251;31
2023/10/07 15:16:56;;;;;;;2.08;0.80;;;18.20;99.90;;;;;;2604594;46;20042;31
2023/10/07 15:19:30;;;;;;;4.05;1.33;;;18.20;99.90;;;;;;2684187;39;21456;31
2023/10/07 15:22:12;;;;;;;3.70;1.10;;;18.10;99.90;;;;;;2586014;54;20026;31
2023/10/07 15:24:50;;;;;;;2.67;0.93;;;18.00;99.90;;;;;;2586094;54;20499;31
2023/10/07 15:27:29;;;;;;;2.70;1.15;;;17.90;99.90;;;;;;2586282;54;20026;31
2023/10/07 15:30:12;;;;;;;2.58;1.00;;;17.80;99.90;;;;;;2586086;54;20964;31
2023/10/07 15:32:49;;;;;;;2.83;0.93;;;17.80;99.90;;;;;;2586069;54;19941;31
2023/10/07 15:35:27;;;;;;;5.18;1.55;;;17.70;99.90;;;;;;2586119;54;20026;31
2023/10/07 15:38:04;;;;;;;4.60;1.13;;;17.70;99.90;;;;;;2684096;39;21289;31
2023/10/07 15:40:42;;;;;;;3.43;1.33;;;17.60;99.90;;;;;;2604725;46;20132;31
2023/10/07 15:43:22;;;;;;;2.23;0.97;;;17.60;99.90;;;;;;2586131;54;20030;31
2023/10/07 15:46:19;;;;;;;2.92;1.08;;;17.60;99.90;;;;;;2773504;31;21576;31
2023/10/07 15:51:24;;;;;;;2.37;1.00;;;17.50;99.90;;;;;;2586172;54;20104;31
2023/10/07 15:54:07;;;;;;;4.27;1.40;;;17.50;99.90;;;;;;2585416;54;20891;31
2023/10/07 15:56:48;;;;;;;5.10;1.73;;;17.50;99.90;;;;;;2586197;54;20030;31
2023/10/07 15:59:32;;;;;;;5.22;1.95;;;17.40;99.90;;;;;;2586034;54;19934;31
2023/10/07 16:02:16;;;;;;;2.15;1.30;;;17.50;99.90;;;;;;2586424;54;20752;31
2023/10/07 16:05:03;;;;;;;2.90;1.30;;;17.50;99.90;;;;;;2683854;39;20420;31
2023/10/07 16:07:38;;;;;;;7.30;1.50;;;17.40;99.90;;;;;;2700973;39;20463;31
2023/10/07 16:10:19;;;;;;;8.48;1.40;;;17.40;99.90;;;;;;2586275;54;19938;31
2023/10/07 16:12:57;;;;;;;3.00;1.05;;;17.40;99.90;;;;;;2585954;54;20481;31
2023/10/07 16:15:36;;;;;;;2.75;1.30;;;17.40;99.90;;;;;;2586123;54;20845;31
2023/10/07 16:18:11;;;;;;;3.38;1.27;;;17.30;99.90;;;;;;2585929;54;20038;31
2023/10/07 16:20:52;;;;;;;2.37;1.33;;;17.40;99.90;;;;;;2585929;54;20056;31
2023/10/07 16:23:25;;;;;;;2.80;1.30;;;17.30;99.90;;;;;;2586032;54;20022;31
2023/10/07 16:25:58;;;;;;;4.10;1.37;;;17.30;99.90;;;;;;2586151;54;20053;31
2023/10/07 16:28:31;;;;;;;3.20;1.35;;;17.20;99.90;;;;;;2586082;54;20753;31
2023/10/07 16:31:04;;;;;;;4.47;1.60;;;17.30;99.90;;;;;;2586196;54;20033;31
2023/10/07 16:33:41;;;;;;;4.25;1.70;;;17.20;99.90;;;;;;2585697;54;20465;31
2023/10/07 16:36:25;;;;;;;3.17;1.13;;;17.20;99.90;;;;;;2586027;54;20749;31
2023/10/07 16:39:08;;;;;;;7.53;1.75;;;17.20;99.90;;;;;;2586018;54;20158;31
2023/10/07 17:00:15;;;;;;;5.30;1.83;;;17.20;99.90;;;;;;2585309;54;20801;31
2023/10/07 17:03:04;;;;;;;3.90;1.90;;;17.20;99.90;;;;;;2587892;46;20872;31
2023/10/07 17:05:48;;;;;;;3.83;1.63;;;17.20;99.90;;;;;;2683176;39;22529;31
2023/10/07 17:08:28;;;;;;;4.07;1.70;;;17.20;99.90;;;;;;2585528;54;20925;31
2023/10/07 17:11:07;;;;;;;3.60;1.80;;;17.20;99.90;;;;;;2586120;54;20759;31
2023/10/07 17:13:44;;;;;;;4.30;1.52;;;17.20;99.90;;;;;;2585089;54;20054;31
2023/10/07 17:16:23;;;;;;;3.60;1.60;;;17.20;99.90;;;;;;2584673;54;20520;31
2023/10/07 17:19:07;;;;;;;3.77;1.80;;;17.20;99.90;;;;;;2589553;47;20093;31
2023/10/07 17:21:49;;;;;;;5.03;1.70;;;17.20;99.90;;;;;;2584732;54;20594;31
2023/10/07 17:27:21;;;;;;;6.63;2.38;;;17.30;99.90;;;;;;2585001;54;20062;31
2023/10/07 17:29:58;;;;;;;5.03;2.03;;;17.30;99.90;;;;;;2585778;54;20046;31
2023/10/07 17:32:34;;;;;;;7.30;2.70;;;17.30;99.90;;;;;;2604246;47;20027;31
2023/10/07 17:35:13;;;;;;;6.53;2.28;;;17.30;99.90;;;;;;2585922;54;20270;31
2023/10/07 17:37:50;;;;;;;3.58;2.00;;;17.30;99.90;;;;;;2585804;54;20847;31
2023/10/07 17:40:35;;;;;;;5.22;2.25;;;17.30;99.90;;;;;;2585316;54;20025;31
2023/10/07 17:43:14;;;;;;;6.00;2.30;;;17.30;99.90;;;;;;2604274;47;20030;31
2023/10/07 17:45:51;;;;;;;3.42;1.65;;;17.30;99.90;;;;;;2604479;47;20567;31
2023/10/07 17:48:30;;;;;;;4.80;1.85;;;17.30;99.90;;;;;;2586552;54;20030;31
2023/10/07 17:51:09;;;;;;;4.25;2.20;;;17.30;99.90;;;;;;2586337;54;20104;31
2023/10/07 17:53:55;;;;;;;6.60;2.10;;;17.30;99.90;;;;;;2586604;54;20031;31
2023/10/07 17:56:32;;;;;;;4.70;2.10;;;17.30;99.90;;;;;;2586546;54;20935;31
2023/10/07 18:01:58;;;;;;;7.55;2.28;;;17.30;99.90;;;;;;2586599;54;20543;31
2023/10/07 18:04:39;;;;;;;3.58;1.80;;;17.30;99.90;;;;;;2586255;54;20026;31
2023/10/07 18:07:13;;;;;;;4.93;1.93;;;17.30;99.90;;;;;;2586448;54;20027;31
2023/10/07 18:09:51;;;;;;;5.05;2.13;;;17.30;99.90;;;;;;2684369;39;20448;31
2023/10/07 18:15:26;;;;;;;7.22;2.05;;;17.30;99.90;;;;;;2604898;46;20027;31
2023/10/07 18:30:18;;;;;;;4.78;1.88;;;17.30;99.90;;;;;;2754763;31;22259;31
2023/10/07 18:33:11;;;;;;;4.03;1.73;;;17.30;99.90;;;;;;2586420;54;20684;31
2023/10/07 18:54:46;;;;;;;2.88;1.70;;;17.50;99.90;;;;;;2585365;54;20915;31
2023/10/07 18:57:30;;;;;;;4.55;2.10;;;17.50;99.90;;;;;;2594724;46;21236;31
2023/10/07 19:00:17;;;;;;;6.65;2.00;;;17.50;99.90;;;;;;2585613;54;20871;31
2023/10/07 19:05:46;;;;;;;4.30;1.80;;;17.50;99.90;;;;;;2585399;54;20897;31
2023/10/07 19:11:36;;;;;;;3.20;1.25;;;17.60;99.90;;;;;;2586382;54;20843;31
2023/10/07 19:20:28;;;;;;;3.80;1.75;;;17.60;99.90;;;;;;2584939;54;20038;31
2023/10/07 19:32:01;;;;;;;4.85;1.50;;;17.70;99.90;;;;;;2586237;54;20895;31
2023/10/07 19:34:36;;;;;;;5.30;2.10;;;17.70;99.90;;;;;;2586097;54;20026;31
2023/10/07 19:37:23;;;;;;;4.13;1.70;;;17.80;99.90;;;;;;2586448;54;20865;31
2023/10/07 19:39:57;;;;;;;4.87;1.20;;;17.80;99.90;;;;;;2586092;54;20074;31
2023/10/07 19:42:35;;;;;;;4.45;0.70;;;17.70;99.90;;;;;;2604569;46;21160;31